Long Island, Maine
Current Conditions -  °F | °C
As of 3:15 AM on Tuesday 27 Jan 2015 (Local Time) from KPWM Reporting Station
Light Snow Light Snow  
Wind Chill: -6°   Ceiling: 1300
Heat Index: 13°   Visibility: 0.75mi
Dew Point:   Wind: 23mph
Humidity: 74%   Direction: 30°NNE
Pressure: 29.86"   Gusts: 32mph
Location:  43.68°N, 70.17°W
Report Text: KPWM 270815Z AUTO 03020G28KT 3/4SM -SN VV013 M11/M14 A2986 RMK AO2 PK WND 02030/0755 P0001 T11061144
Loading
Personal Weather Stations






























Interactive Weather Map New forecast layout! Learn more

10-Day Weather Forecast

Advertisements
Track Severe Weather on mobile